createdAt,value
2022-11-05T00:02:30.899Z,10.50
2022-11-05T00:05:16.179Z,10.50
2022-11-05T00:08:07.838Z,10.50
2022-11-05T00:10:38.265Z,10.40
2022-11-05T00:13:26.403Z,10.40
2022-11-05T00:16:11.811Z,10.40
2022-11-05T00:18:39.781Z,10.40
2022-11-05T00:21:28.037Z,10.40
2022-11-05T00:24:14.892Z,10.40
2022-11-05T00:26:42.773Z,10.40
2022-11-05T00:29:10.592Z,10.50
2022-11-05T00:31:38.441Z,10.50
2022-11-05T00:34:06.337Z,10.50
2022-11-05T00:36:34.202Z,10.40
2022-11-05T00:39:03.425Z,10.40
2022-11-05T00:41:31.266Z,10.50
2022-11-05T00:44:24.951Z,10.50
2022-11-05T00:47:13.460Z,10.50
2022-11-05T00:49:40.349Z,10.40
2022-11-05T00:52:22.110Z,10.40
2022-11-05T00:54:51.301Z,10.50
2022-11-05T00:57:20.191Z,10.40
2022-11-05T00:59:48.034Z,10.40
2022-11-05T01:02:15.972Z,10.40
2022-11-05T01:04:43.893Z,10.40
2022-11-05T01:07:11.726Z,10.40
2022-11-05T01:09:39.578Z,10.40
2022-11-05T01:12:08.907Z,10.40
2022-11-05T01:14:36.758Z,10.40
2022-11-05T01:17:04.628Z,10.50
2022-11-05T01:19:32.833Z,10.50
2022-11-05T01:22:00.705Z,10.50
2022-11-05T01:24:28.726Z,10.50
2022-11-05T01:26:56.815Z,10.50
2022-11-05T01:29:26.017Z,10.50
2022-11-05T01:31:53.851Z,10.50
2022-11-05T01:34:21.692Z,10.50
2022-11-05T01:36:49.539Z,10.50
2022-11-05T01:39:17.501Z,10.50
2022-11-05T01:41:45.338Z,10.50
2022-11-05T01:44:47.794Z,10.50
2022-11-05T01:47:26.897Z,10.50
2022-11-05T01:49:55.810Z,10.50
2022-11-05T01:52:25.190Z,10.50
2022-11-05T01:54:53.339Z,10.50
2022-11-05T01:57:22.109Z,10.50
2022-11-05T01:59:53.953Z,10.50
2022-11-05T02:02:25.150Z,10.50
2022-11-05T02:04:55.783Z,10.50
2022-11-05T02:07:26.574Z,10.50
2022-11-05T02:09:57.261Z,10.50
2022-11-05T02:12:25.586Z,10.50
2022-11-05T02:14:53.435Z,10.50
2022-11-05T02:17:31.621Z,10.50
2022-11-05T02:20:23.366Z,10.50
2022-11-05T02:23:40.286Z,10.50
2022-11-05T02:26:48.059Z,10.50
2022-11-05T02:29:48.229Z,10.50
2022-11-05T02:32:27.135Z,10.50
2022-11-05T02:35:03.886Z,10.50
2022-11-05T02:37:40.292Z,10.50
2022-11-05T02:40:17.351Z,10.50
2022-11-05T02:42:52.991Z,10.50
2022-11-05T02:45:31.038Z,10.50
2022-11-05T02:48:12.278Z,10.50
2022-11-05T02:50:50.116Z,10.50
2022-11-05T02:53:23.771Z,10.60
2022-11-05T02:55:59.277Z,10.50
2022-11-05T02:58:30.455Z,10.60
2022-11-05T03:01:00.344Z,10.60
2022-11-05T03:03:35.539Z,10.60
2022-11-05T03:06:22.862Z,10.60
2022-11-05T03:09:08.073Z,10.50
2022-11-05T03:11:44.449Z,10.50
2022-11-05T03:14:23.581Z,10.50
2022-11-05T03:16:59.421Z,10.60
2022-11-05T03:19:36.914Z,10.60
2022-11-05T03:22:09.239Z,10.60
2022-11-05T03:24:42.106Z,10.60
2022-11-05T03:27:13.402Z,10.60
2022-11-05T03:29:47.261Z,10.60
2022-11-05T03:32:18.575Z,10.60
2022-11-05T03:34:50.792Z,10.60
2022-11-05T03:37:21.371Z,10.60
2022-11-05T03:39:53.578Z,10.60
2022-11-05T03:42:26.746Z,10.60
2022-11-05T03:44:58.331Z,10.60
2022-11-05T03:47:32.526Z,10.60
2022-11-05T03:50:13.915Z,10.60
2022-11-05T03:52:48.665Z,10.50
2022-11-05T03:55:17.134Z,10.60
2022-11-05T03:57:50.590Z,10.50
2022-11-05T04:00:18.455Z,10.60
2022-11-05T04:02:46.457Z,10.60
2022-11-05T04:05:15.927Z,10.60
2022-11-05T04:08:02.562Z,10.60
2022-11-05T04:11:02.339Z,10.60
2022-11-05T04:13:30.495Z,10.60
2022-11-05T04:16:16.350Z,10.60
2022-11-05T04:18:44.396Z,10.60
2022-11-05T04:21:31.004Z,10.60
2022-11-05T04:24:10.935Z,10.60
2022-11-05T04:26:40.349Z,10.60
2022-11-05T04:29:26.170Z,10.60
2022-11-05T04:31:54.329Z,10.60
2022-11-05T04:34:22.922Z,10.60
2022-11-05T04:36:53.196Z,10.60
2022-11-05T04:39:21.523Z,10.60
2022-11-05T04:41:49.646Z,10.60
2022-11-05T04:44:17.781Z,10.50
2022-11-05T04:46:45.589Z,10.50
2022-11-05T04:49:13.430Z,10.50
2022-11-05T04:51:41.270Z,10.50
2022-11-05T04:54:10.515Z,10.50
2022-11-05T04:56:38.347Z,10.50
2022-11-05T04:59:06.185Z,10.50
2022-11-05T05:01:34.155Z,10.50
2022-11-05T05:04:02.066Z,10.50
2022-11-05T05:06:30.065Z,10.50
2022-11-05T05:08:58.038Z,10.50
2022-11-05T05:11:27.514Z,10.50
2022-11-05T05:13:55.380Z,10.50
2022-11-05T05:16:25.459Z,10.50
2022-11-05T05:18:53.702Z,10.50
2022-11-05T05:21:41.388Z,10.50
2022-11-05T05:24:11.006Z,10.50
2022-11-05T05:26:42.666Z,10.50
2022-11-05T05:29:10.852Z,10.50
2022-11-05T05:31:39.361Z,10.50
2022-11-05T05:34:08.922Z,10.50
2022-11-05T05:36:36.830Z,10.50
2022-11-05T05:39:06.514Z,10.50
2022-11-05T05:41:34.390Z,10.50
2022-11-05T05:44:05.231Z,10.50
2022-11-05T05:46:33.262Z,10.50
2022-11-05T05:49:01.323Z,10.50
2022-11-05T05:51:29.231Z,10.50
2022-11-05T05:53:57.102Z,10.50
2022-11-05T05:56:24.950Z,10.50
2022-11-05T05:58:53.267Z,10.50
2022-11-05T06:01:22.931Z,10.50
2022-11-05T06:03:50.880Z,10.50
2022-11-05T06:06:20.962Z,10.50
2022-11-05T06:08:48.972Z,10.50
2022-11-05T06:11:17.157Z,10.50
2022-11-05T06:13:45.023Z,10.50
2022-11-05T06:16:12.846Z,10.50
2022-11-05T06:18:42.049Z,10.50
2022-11-05T06:21:12.369Z,10.50
2022-11-05T06:23:41.670Z,10.50
2022-11-05T06:26:12.165Z,10.50
2022-11-05T06:28:41.933Z,10.50
2022-11-05T06:31:09.989Z,10.50
2022-11-05T06:33:37.975Z,10.50
2022-11-05T06:36:08.991Z,10.50
2022-11-05T06:38:37.788Z,10.50
2022-11-05T06:41:10.240Z,10.50
2022-11-05T06:43:39.002Z,10.50
2022-11-05T06:46:07.173Z,10.50
2022-11-05T06:48:35.337Z,10.50
2022-11-05T06:51:03.285Z,10.50
2022-11-05T06:53:33.256Z,10.50
2022-11-05T06:56:03.624Z,10.50
2022-11-05T06:58:32.059Z,10.50
2022-11-05T07:01:03.892Z,10.50
2022-11-05T07:03:32.235Z,10.50
2022-11-05T07:06:01.390Z,10.50
2022-11-05T07:08:33.360Z,10.50
2022-11-05T07:11:01.460Z,10.50
2022-11-05T07:13:29.334Z,10.50
2022-11-05T07:15:57.629Z,10.50
2022-11-05T07:18:25.678Z,10.60
2022-11-05T07:20:53.586Z,10.60
2022-11-05T07:23:21.473Z,10.60
2022-11-05T07:25:50.989Z,10.50
2022-11-05T07:28:18.885Z,10.60
2022-11-05T07:30:48.145Z,10.60
2022-11-05T07:33:16.082Z,10.60
2022-11-05T07:35:44.059Z,10.60
2022-11-05T07:38:12.137Z,10.60
2022-11-05T07:40:40.107Z,10.60
2022-11-05T07:43:09.652Z,10.60
2022-11-05T07:45:37.806Z,10.60
2022-11-05T07:48:06.813Z,10.70
2022-11-05T07:50:36.424Z,10.70
2022-11-05T07:53:05.884Z,10.70
2022-11-05T07:55:34.538Z,10.70
2022-11-05T07:58:02.497Z,10.80
2022-11-05T08:00:32.152Z,10.80
2022-11-05T08:03:08.730Z,10.80
2022-11-05T08:05:39.156Z,10.90
2022-11-05T08:08:08.557Z,10.80
2022-11-05T08:10:36.537Z,10.90
2022-11-05T08:13:08.117Z,10.90
2022-11-05T08:15:38.115Z,10.90
2022-11-05T08:18:08.156Z,10.90
2022-11-05T08:20:36.907Z,10.80
2022-11-05T08:23:04.827Z,10.90
2022-11-05T08:25:32.979Z,10.90
2022-11-05T08:28:02.169Z,10.90
2022-11-05T08:30:30.538Z,10.90
2022-11-05T08:33:01.696Z,10.90
2022-11-05T08:35:30.410Z,10.90
2022-11-05T08:37:59.179Z,11.00
2022-11-05T08:40:27.494Z,11.00
2022-11-05T08:42:59.527Z,11.00
2022-11-05T08:45:28.170Z,11.00
2022-11-05T08:48:01.368Z,11.00
2022-11-05T08:50:29.638Z,11.00
2022-11-05T08:52:58.149Z,11.10
2022-11-05T08:55:26.331Z,11.00
2022-11-05T08:57:57.186Z,11.00
2022-11-05T09:00:25.512Z,11.00
2022-11-05T09:02:53.494Z,11.00
2022-11-05T09:05:22.723Z,11.10
2022-11-05T09:07:52.254Z,11.10
2022-11-05T09:10:22.007Z,11.10
2022-11-05T09:12:49.886Z,11.20
2022-11-05T09:15:17.852Z,11.20
2022-11-05T09:17:45.812Z,11.20
2022-11-05T09:20:13.752Z,11.20
2022-11-05T09:22:43.537Z,11.20
2022-11-05T09:25:11.733Z,11.20
2022-11-05T09:27:39.606Z,11.10
2022-11-05T09:30:08.665Z,11.10
2022-11-05T09:32:36.538Z,11.00
2022-11-05T09:35:05.227Z,11.00
2022-11-05T09:37:33.364Z,10.90
2022-11-05T09:40:02.568Z,10.80
2022-11-05T09:42:37.798Z,10.80
2022-11-05T09:45:09.631Z,10.80
2022-11-05T09:47:41.810Z,10.70
2022-11-05T09:50:13.941Z,10.60
2022-11-05T09:52:42.004Z,10.70
2022-11-05T09:55:24.577Z,10.60
2022-11-05T09:57:56.968Z,10.60
2022-11-05T10:00:25.496Z,10.60
2022-11-05T10:02:56.452Z,10.60
2022-11-05T10:05:26.392Z,10.70
2022-11-05T10:07:59.861Z,10.70
2022-11-05T10:10:40.893Z,10.70
2022-11-05T10:13:20.441Z,10.70
2022-11-05T10:15:56.147Z,10.70
2022-11-05T10:18:29.643Z,10.70
2022-11-05T10:20:58.015Z,10.70
2022-11-05T10:23:27.590Z,10.70
2022-11-05T10:25:58.915Z,10.70
2022-11-05T10:28:28.889Z,10.70
2022-11-05T10:31:00.114Z,10.70
2022-11-05T10:33:32.714Z,10.70
2022-11-05T10:36:05.339Z,10.70
2022-11-05T10:38:33.542Z,10.70
2022-11-05T10:41:22.027Z,10.70
2022-11-05T10:43:52.179Z,10.70
2022-11-05T10:46:32.429Z,10.70
2022-11-05T10:49:21.233Z,10.60
2022-11-05T10:51:56.350Z,10.60
2022-11-05T10:54:27.466Z,10.60
2022-11-05T10:56:56.883Z,10.60
2022-11-05T10:59:26.677Z,10.60
2022-11-05T11:02:00.802Z,10.50
2022-11-05T11:04:35.033Z,10.50
2022-11-05T11:07:06.046Z,10.50
2022-11-05T11:09:37.662Z,10.50
2022-11-05T11:12:14.814Z,10.50
2022-11-05T11:14:42.918Z,10.50
2022-11-05T11:17:24.443Z,10.60
2022-11-05T11:19:53.566Z,10.60
2022-11-05T11:22:22.641Z,10.70
2022-11-05T11:24:53.887Z,10.70
2022-11-05T11:27:27.102Z,10.80
2022-11-05T11:30:01.066Z,10.80
2022-11-05T11:32:34.395Z,10.80
2022-11-05T11:35:03.224Z,10.80
2022-11-05T11:37:34.479Z,10.80
2022-11-05T11:40:06.463Z,10.80
2022-11-05T11:42:40.118Z,10.80
2022-11-05T11:45:17.283Z,10.80
2022-11-05T11:47:47.050Z,10.80
2022-11-05T11:50:35.006Z,10.80
2022-11-05T11:53:32.848Z,10.90
2022-11-05T11:56:03.808Z,11.00
2022-11-05T11:58:42.799Z,11.10
2022-11-05T12:02:02.189Z,11.10
2022-11-05T12:04:47.010Z,11.10
2022-11-05T12:07:28.670Z,11.00
2022-11-05T12:10:11.053Z,11.00
2022-11-05T12:12:47.323Z,11.00
2022-11-05T12:15:28.663Z,11.00
2022-11-05T12:18:02.272Z,11.10
2022-11-05T12:20:50.809Z,11.30
2022-11-05T12:23:49.256Z,11.70
2022-11-05T12:26:25.716Z,12.00
2022-11-05T12:29:18.800Z,12.10
2022-11-05T12:32:00.159Z,12.10
2022-11-05T12:34:41.319Z,12.00
2022-11-05T12:37:23.484Z,11.90
2022-11-05T12:40:15.348Z,11.80
2022-11-05T12:42:59.095Z,11.70
2022-11-05T12:45:37.297Z,11.60
2022-11-05T12:48:35.816Z,11.80
2022-11-05T12:51:17.654Z,12.00
2022-11-05T12:54:04.903Z,12.40
2022-11-05T12:56:36.551Z,12.80
2022-11-05T12:59:12.974Z,13.10
2022-11-05T13:01:45.732Z,13.20
2022-11-05T13:04:24.824Z,13.30
2022-11-05T13:06:56.364Z,13.40
2022-11-05T13:09:29.071Z,13.30
2022-11-05T13:12:00.498Z,13.30
2022-11-05T13:14:31.737Z,13.20
2022-11-05T13:17:04.200Z,13.00
2022-11-05T13:19:38.889Z,13.00
2022-11-05T13:22:16.512Z,12.80
2022-11-05T13:24:49.826Z,12.70
2022-11-05T13:27:37.898Z,12.60
2022-11-05T13:30:08.327Z,12.50
2022-11-05T13:32:39.690Z,12.40
2022-11-05T13:35:17.779Z,12.30
2022-11-05T13:38:07.439Z,12.20
2022-11-05T13:40:44.853Z,12.10
2022-11-05T13:43:23.528Z,12.00
2022-11-05T13:46:13.592Z,12.00
2022-11-05T13:49:16.468Z,11.90
2022-11-05T13:51:53.950Z,11.80
2022-11-05T13:54:46.968Z,11.80
2022-11-05T13:57:46.889Z,11.80
2022-11-05T14:00:19.087Z,11.80
2022-11-05T14:02:51.567Z,11.80
2022-11-05T14:05:30.431Z,11.70
2022-11-05T14:08:01.699Z,11.70
2022-11-05T14:10:36.388Z,11.70
2022-11-05T14:13:17.373Z,11.70
2022-11-05T14:15:58.656Z,11.60
2022-11-05T14:18:41.736Z,11.60
2022-11-05T14:21:46.136Z,11.60
2022-11-05T14:24:27.568Z,11.60
2022-11-05T14:27:32.969Z,11.50
2022-11-05T14:30:02.016Z,11.50
2022-11-05T14:32:49.916Z,11.50
2022-11-05T14:35:37.473Z,11.50
2022-11-05T14:38:06.900Z,11.50
2022-11-05T14:40:38.072Z,11.40
2022-11-05T14:43:09.245Z,11.40
2022-11-05T14:45:40.221Z,11.40
2022-11-05T14:48:27.062Z,11.40
2022-11-05T14:50:55.936Z,11.40
2022-11-05T14:53:32.487Z,11.30
2022-11-05T14:56:05.498Z,11.30
2022-11-05T14:58:36.462Z,11.30
2022-11-05T15:01:06.459Z,11.30
2022-11-05T15:04:02.456Z,11.30
2022-11-05T15:06:33.199Z,11.20
2022-11-05T15:09:26.494Z,11.20
2022-11-05T15:12:19.410Z,11.20
2022-11-05T15:14:55.287Z,11.20
2022-11-05T15:17:29.850Z,11.10
2022-11-05T15:20:02.800Z,11.10
2022-11-05T15:22:35.005Z,11.10
2022-11-05T15:25:04.012Z,11.10
2022-11-05T15:27:47.171Z,11.00
2022-11-05T15:30:20.411Z,11.00
2022-11-05T15:32:48.521Z,11.00
2022-11-05T15:35:23.372Z,11.00
2022-11-05T15:37:57.300Z,11.00
2022-11-05T15:40:30.397Z,10.90
2022-11-05T15:43:19.837Z,10.90
2022-11-05T15:46:05.132Z,10.90
2022-11-05T15:48:34.033Z,10.90
2022-11-05T15:51:02.615Z,10.80
2022-11-05T15:54:28.381Z,10.80
2022-11-05T15:56:50.338Z,10.80
2022-11-05T15:59:21.377Z,10.80
2022-11-05T16:01:52.098Z,10.70
2022-11-05T16:04:23.370Z,10.70
2022-11-05T16:06:54.785Z,10.70
2022-11-05T16:09:24.631Z,10.70
2022-11-05T16:12:09.993Z,10.70
2022-11-05T16:14:39.313Z,10.70
2022-11-05T16:17:18.542Z,10.60
2022-11-05T16:19:47.381Z,10.60
2022-11-05T16:22:15.723Z,10.60
2022-11-05T16:24:44.130Z,10.60
2022-11-05T16:27:19.372Z,10.60
2022-11-05T16:29:53.892Z,10.60
2022-11-05T16:32:30.553Z,10.60
2022-11-05T16:35:02.042Z,10.60
2022-11-05T16:37:39.669Z,10.50
2022-11-05T16:40:15.331Z,10.50
2022-11-05T16:42:48.227Z,10.50
2022-11-05T16:45:19.064Z,10.50
2022-11-05T16:47:47.532Z,10.50
2022-11-05T16:50:23.187Z,10.50
2022-11-05T16:52:51.748Z,10.40
2022-11-05T16:55:20.544Z,10.40
2022-11-05T16:57:52.016Z,10.40
2022-11-05T17:00:22.379Z,10.30
2022-11-05T17:02:50.577Z,10.40
2022-11-05T17:05:22.466Z,10.30
2022-11-05T17:07:50.589Z,10.30
2022-11-05T17:10:19.322Z,10.40
2022-11-05T17:12:48.179Z,10.40
2022-11-05T17:15:19.605Z,10.30
2022-11-05T17:17:49.228Z,10.30
2022-11-05T17:20:38.332Z,10.30
2022-11-05T17:23:08.914Z,10.30
2022-11-05T17:25:37.030Z,10.30
2022-11-05T17:28:05.563Z,10.20
2022-11-05T17:30:33.535Z,10.20
2022-11-05T17:33:02.955Z,10.10
2022-11-05T17:35:30.928Z,10.10
2022-11-05T17:37:59.105Z,10.00
2022-11-05T17:40:28.320Z,9.90
2022-11-05T17:42:56.269Z,9.90
2022-11-05T17:45:24.151Z,9.80
2022-11-05T17:47:52.028Z,9.80
2022-11-05T17:50:21.421Z,9.80
2022-11-05T17:52:49.289Z,9.70
2022-11-05T17:55:17.638Z,9.60
2022-11-05T17:57:47.286Z,9.60
2022-11-05T18:00:17.230Z,9.60
2022-11-05T18:02:46.114Z,9.50
2022-11-05T18:05:14.380Z,9.50
2022-11-05T18:07:43.914Z,9.40
2022-11-05T18:10:12.089Z,9.40
2022-11-05T18:12:40.675Z,9.30
2022-11-05T18:15:09.520Z,9.30
2022-11-05T18:17:37.621Z,9.30
2022-11-05T18:20:10.638Z,9.30
2022-11-05T18:22:41.655Z,9.20
2022-11-05T18:25:13.237Z,9.20
2022-11-05T18:27:41.561Z,9.20
2022-11-05T18:30:11.486Z,9.10
2022-11-05T18:32:40.568Z,9.10
2022-11-05T18:35:09.191Z,9.10
2022-11-05T18:37:38.697Z,9.10
2022-11-05T18:40:08.038Z,9.00
2022-11-05T18:42:37.291Z,9.00
2022-11-05T18:45:06.012Z,8.90
2022-11-05T18:47:34.767Z,8.90
2022-11-05T18:50:03.231Z,8.90
2022-11-05T18:52:32.127Z,8.90
2022-11-05T18:55:00.365Z,8.80
2022-11-05T18:57:28.681Z,8.80
2022-11-05T18:59:57.854Z,8.70
2022-11-05T19:02:25.822Z,8.70
2022-11-05T19:05:27.347Z,8.70
2022-11-05T19:07:41.782Z,8.70
2022-11-05T19:10:10.352Z,8.60
2022-11-05T19:12:38.206Z,8.60
2022-11-05T19:15:08.833Z,8.60
2022-11-05T19:17:37.480Z,8.50
2022-11-05T19:20:09.202Z,8.50
2022-11-05T19:22:37.138Z,8.50
2022-11-05T19:25:05.687Z,8.40
2022-11-05T19:27:35.585Z,8.40
2022-11-05T19:30:03.568Z,8.40
2022-11-05T19:32:32.737Z,8.30
2022-11-05T19:35:00.604Z,8.20
2022-11-05T19:37:28.525Z,8.20
2022-11-05T19:39:56.349Z,8.20
2022-11-05T19:42:24.263Z,8.20
2022-11-05T19:44:52.210Z,8.20
2022-11-05T19:47:20.174Z,8.10
2022-11-05T19:49:49.484Z,8.10
2022-11-05T19:52:17.363Z,8.10
2022-11-05T19:54:45.982Z,8.10
2022-11-05T19:57:14.187Z,8.10
2022-11-05T19:59:42.030Z,8.10
2022-11-05T20:02:15.990Z,8.10
2022-11-05T20:04:44.213Z,8.10
2022-11-05T20:07:13.423Z,8.10
2022-11-05T20:09:41.409Z,8.10
2022-11-05T20:12:09.352Z,8.00
2022-11-05T20:14:37.290Z,8.00
2022-11-05T20:17:05.139Z,8.00
2022-11-05T20:19:33.528Z,8.00
2022-11-05T20:22:01.791Z,7.90
2022-11-05T20:24:31.133Z,8.00
2022-11-05T20:26:59.073Z,8.00
2022-11-05T20:29:34.774Z,8.00
2022-11-05T20:32:03.805Z,8.00
2022-11-05T20:34:34.477Z,8.00
2022-11-05T20:37:02.556Z,8.00
2022-11-05T20:39:31.801Z,8.00
2022-11-05T20:42:00.467Z,8.00
2022-11-05T20:44:28.758Z,8.10
2022-11-05T20:46:56.666Z,8.00
2022-11-05T20:49:25.848Z,8.10
2022-11-05T20:51:54.097Z,8.10
2022-11-05T20:54:22.092Z,8.10
2022-11-05T20:56:51.703Z,8.10
2022-11-05T20:59:19.624Z,8.00
2022-11-05T21:01:47.583Z,8.10
2022-11-05T21:04:15.580Z,8.00
2022-11-05T21:06:43.453Z,8.00
2022-11-05T21:09:11.385Z,8.00
2022-11-05T21:11:53.234Z,8.00
2022-11-05T21:14:22.417Z,8.00
2022-11-05T21:16:50.288Z,8.00
2022-11-05T21:19:18.151Z,8.00
2022-11-05T21:21:45.987Z,8.00
2022-11-05T21:24:13.889Z,8.00
2022-11-05T21:26:41.759Z,8.00
2022-11-05T21:29:09.707Z,8.00
2022-11-05T21:31:39.792Z,8.00
2022-11-05T21:34:07.759Z,8.00
2022-11-05T21:36:35.646Z,7.90
2022-11-05T21:39:05.697Z,7.90
2022-11-05T21:41:36.998Z,7.90
2022-11-05T21:44:04.945Z,8.00
2022-11-05T21:46:32.805Z,8.00
2022-11-05T21:49:02.352Z,8.00
2022-11-05T21:51:48.003Z,8.00
2022-11-05T21:54:33.430Z,7.90
2022-11-05T21:57:18.726Z,7.90
2022-11-05T21:59:49.760Z,8.00
2022-11-05T22:02:20.127Z,7.90
2022-11-05T22:04:51.234Z,7.90
2022-11-05T22:07:23.141Z,7.90
2022-11-05T22:09:51.340Z,7.90
2022-11-05T22:12:19.286Z,7.80
2022-11-05T22:14:47.206Z,7.80
2022-11-05T22:17:15.493Z,7.80
2022-11-05T22:19:43.718Z,7.80
2022-11-05T22:22:13.467Z,7.80
2022-11-05T22:24:41.998Z,7.80
2022-11-05T22:27:13.271Z,7.70
2022-11-05T22:29:41.529Z,7.70
2022-11-05T22:32:10.397Z,7.70
2022-11-05T22:34:38.387Z,7.70
2022-11-05T22:37:06.630Z,7.70
2022-11-05T22:39:35.851Z,7.70
2022-11-05T22:42:08.333Z,7.70
2022-11-05T22:44:37.186Z,7.70
2022-11-05T22:47:05.594Z,7.70
2022-11-05T22:49:33.778Z,7.70
2022-11-05T22:52:01.699Z,7.70
2022-11-05T22:54:31.717Z,7.70
2022-11-05T22:57:03.172Z,7.70
2022-11-05T22:59:31.003Z,7.70
2022-11-05T23:01:58.929Z,7.60
2022-11-05T23:04:26.889Z,7.60
2022-11-05T23:07:12.074Z,7.50
2022-11-05T23:09:57.445Z,7.50
2022-11-05T23:12:28.963Z,7.40
2022-11-05T23:14:58.945Z,7.40
2022-11-05T23:17:44.703Z,7.40
2022-11-05T23:20:32.529Z,7.40
2022-11-05T23:23:18.018Z,7.40
2022-11-05T23:25:46.151Z,7.40
2022-11-05T23:28:15.757Z,7.40
2022-11-05T23:30:59.194Z,7.40
2022-11-05T23:33:27.088Z,7.40
2022-11-05T23:36:12.590Z,7.40
2022-11-05T23:38:40.570Z,7.40
2022-11-05T23:41:26.850Z,7.40
2022-11-05T23:44:13.681Z,7.40
2022-11-05T23:46:59.276Z,7.50
2022-11-05T23:49:27.571Z,7.50
2022-11-05T23:51:55.438Z,7.40
2022-11-05T23:54:23.278Z,7.50
2022-11-05T23:56:51.186Z,7.40
2022-11-05T23:59:20.380Z,7.50
